Time;durP1;ratioP1;P1;durP2;ratioP2;P2;SDS_P1;SDS_P2;PMS_P1;PMS_P2;Temp;Humidity;BMP_temperature;BMP_pressure;BME280_temperature;BME280_humidity;BME280_pressure;Samples;Min_cycle;Max_cycle;Signal;HPM_P1;HPM_P2
2022/05/29 04:03:27;;;;;;;1.55;0.30;;;11.80;78.20;;;;;;4916646;28;87233;-77
2022/05/29 04:05:54;;;;;;;3.17;0.22;;;11.80;77.90;;;;;;4926822;28;86818;-77
2022/05/29 04:13:50;;;;;;;6.75;0.40;;;11.80;78.50;;;;;;4928209;28;86640;-77
2022/05/29 04:16:16;;;;;;;3.55;0.20;;;11.90;77.80;;;;;;4927539;28;86815;-77
2022/05/29 04:18:42;;;;;;;2.63;0.20;;;12.00;77.90;;;;;;4927758;28;87982;-78
2022/05/29 04:21:09;;;;;;;1.95;0.20;;;12.10;77.40;;;;;;4929038;28;87882;-78
2022/05/29 04:23:35;;;;;;;1.75;0.20;;;12.10;76.70;;;;;;4929231;28;86759;-78
2022/05/29 04:26:01;;;;;;;2.85;0.40;;;12.30;76.30;;;;;;4928681;28;86706;-77
2022/05/29 04:28:26;;;;;;;3.20;0.38;;;12.30;75.90;;;;;;4928703;28;88200;-77
2022/05/29 04:30:52;;;;;;;5.15;0.55;;;12.40;75.60;;;;;;4927832;28;86730;-77
2022/05/29 04:33:18;;;;;;;9.48;0.40;;;12.40;75.50;;;;;;4930055;28;86775;-79
2022/05/29 04:35:49;;;;;;;4.93;0.52;;;12.40;74.60;;;;;;4930650;28;86342;-78
2022/05/29 04:38:16;;;;;;;3.85;0.30;;;12.50;74.70;;;;;;4929476;28;88409;-78
2022/05/29 04:40:43;;;;;;;2.63;0.20;;;12.60;74.10;;;;;;4928735;28;86421;-77
2022/05/29 04:43:10;;;;;;;3.53;0.50;;;12.70;73.80;;;;;;4928851;28;87793;-78
2022/05/29 04:45:38;;;;;;;1.90;0.22;;;12.90;73.50;;;;;;4929594;28;86826;-78
2022/05/29 04:48:04;;;;;;;2.95;0.30;;;12.90;72.80;;;;;;4929738;28;87670;-78
2022/05/29 04:50:30;;;;;;;3.30;0.43;;;13.00;72.50;;;;;;4930136;28;88395;-79
2022/05/29 04:52:55;;;;;;;2.90;0.60;;;13.10;72.40;;;;;;4931466;28;86385;-78
2022/05/29 04:55:21;;;;;;;3.13;0.30;;;13.00;72.60;;;;;;4930608;28;86689;-77
2022/05/29 04:57:47;;;;;;;2.45;0.40;;;13.10;73.00;;;;;;4928017;28;86967;-78
2022/05/29 05:00:14;;;;;;;2.70;0.45;;;13.20;73.00;;;;;;4931450;28;87080;-79
2022/05/29 05:02:40;;;;;;;1.90;0.20;;;13.20;72.70;;;;;;4930421;28;86724;-78
2022/05/29 05:05:05;;;;;;;3.80;0.40;;;13.20;73.50;;;;;;4920044;28;86910;-78
2022/05/29 05:07:31;;;;;;;2.13;0.30;;;13.10;73.40;;;;;;4908992;28;88153;-78
2022/05/29 05:09:57;;;;;;;4.78;0.30;;;13.00;74.20;;;;;;4910183;28;88827;-78
2022/05/29 05:12:23;;;;;;;4.18;0.40;;;12.90;74.00;;;;;;4910105;28;86657;-78
2022/05/29 05:14:49;;;;;;;4.40;0.40;;;12.90;73.90;;;;;;4910370;28;86701;-78
2022/05/29 05:17:14;;;;;;;1.75;0.30;;;12.80;74.20;;;;;;4910022;28;88112;-78
2022/05/29 05:19:40;;;;;;;2.92;0.30;;;12.80;73.70;;;;;;4910805;28;86685;-78
2022/05/29 05:22:08;;;;;;;2.47;0.30;;;12.90;73.70;;;;;;4910826;28;86352;-78
2022/05/29 05:24:37;;;;;;;2.67;0.20;;;12.90;73.90;;;;;;4910730;28;86080;-78
2022/05/29 05:27:04;;;;;;;2.22;0.30;;;12.90;74.10;;;;;;4909921;28;88133;-78
2022/05/29 05:29:29;;;;;;;3.65;0.40;;;13.00;74.60;;;;;;4910462;28;87065;-78
2022/05/29 05:31:55;;;;;;;3.10;0.40;;;13.10;74.30;;;;;;4909729;28;87577;-78
2022/05/29 05:34:21;;;;;;;2.83;0.20;;;13.20;74.10;;;;;;4910146;28;86956;-78
2022/05/29 05:36:47;;;;;;;4.78;0.38;;;13.20;72.80;;;;;;4909423;28;87264;-78
2022/05/29 05:39:13;;;;;;;2.40;0.30;;;13.20;72.00;;;;;;4909398;28;87808;-78
2022/05/29 05:41:39;;;;;;;3.20;0.22;;;13.20;72.50;;;;;;4909380;28;86835;-78
2022/05/29 05:44:05;;;;;;;2.00;0.22;;;13.10;72.10;;;;;;4910362;28;86734;-79
2022/05/29 05:46:31;;;;;;;3.85;0.40;;;13.20;72.10;;;;;;4910260;28;87417;-78
2022/05/29 05:48:57;;;;;;;4.68;0.30;;;13.20;72.50;;;;;;4910339;28;87108;-78
2022/05/29 05:51:23;;;;;;;4.47;0.70;;;13.20;71.30;;;;;;4910332;28;86580;-78
2022/05/29 05:53:49;;;;;;;2.88;0.43;;;13.10;72.40;;;;;;4910422;28;86680;-78
2022/05/29 05:56:17;;;;;;;3.17;0.20;;;13.10;71.80;;;;;;4908898;28;87596;-78
2022/05/29 05:58:44;;;;;;;3.28;0.40;;;13.10;73.00;;;;;;4909928;28;88278;-78
2022/05/29 06:01:18;;;;;;;4.20;0.50;;;13.30;73.40;;;;;;4909885;28;86763;-79
2022/05/29 06:03:45;;;;;;;2.60;0.30;;;13.30;73.80;;;;;;4908461;28;86803;-78
2022/05/29 06:06:11;;;;;;;2.17;0.22;;;13.40;73.70;;;;;;4909671;28;88166;-78
2022/05/29 06:08:37;;;;;;;5.45;0.38;;;13.50;73.40;;;;;;4904880;28;87740;-78
2022/05/29 06:11:03;;;;;;;4.47;0.30;;;13.60;73.20;;;;;;4895204;28;86666;-78
2022/05/29 06:13:29;;;;;;;4.40;0.40;;;13.70;72.90;;;;;;4891374;28;86015;-78
2022/05/29 06:15:58;;;;;;;3.38;0.30;;;13.70;72.30;;;;;;4885255;28;87732;-79
2022/05/29 06:18:23;;;;;;;2.58;0.30;;;13.80;72.00;;;;;;4888191;28;87087;-78
2022/05/29 06:20:57;;;;;;;3.05;0.50;;;14.00;71.40;;;;;;4888035;28;87734;-78
2022/05/29 06:23:23;;;;;;;4.53;0.40;;;14.20;70.30;;;;;;4888403;28;86799;-78
2022/05/29 06:25:48;;;;;;;4.00;0.40;;;14.70;69.30;;;;;;4888913;28;87271;-77
2022/05/29 06:28:14;;;;;;;2.25;0.30;;;14.90;68.90;;;;;;4888339;28;87108;-77
2022/05/29 06:30:40;;;;;;;4.97;0.50;;;15.70;68.00;;;;;;4899242;28;87060;-77
2022/05/29 06:33:06;;;;;;;3.67;0.32;;;16.00;65.30;;;;;;4902581;28;87157;-78
2022/05/29 06:35:32;;;;;;;2.80;0.30;;;15.90;64.70;;;;;;4898396;28;87185;-77
2022/05/29 06:37:58;;;;;;;4.93;0.65;;;16.00;65.00;;;;;;4907539;28;86235;-77
2022/05/29 06:40:23;;;;;;;3.85;0.57;;;15.90;65.40;;;;;;4905585;28;86743;-78
2022/05/29 06:42:49;;;;;;;3.15;0.40;;;16.00;64.70;;;;;;4907442;28;86360;-77
2022/05/29 06:45:15;;;;;;;2.03;0.43;;;16.20;64.10;;;;;;4904698;28;87564;-78
2022/05/29 06:47:40;;;;;;;3.72;0.50;;;16.10;64.40;;;;;;4906841;28;89410;-77
2022/05/29 06:50:08;;;;;;;4.75;0.73;;;16.20;64.70;;;;;;4907354;28;86716;-77
2022/05/29 06:52:34;;;;;;;3.42;0.80;;;16.50;64.00;;;;;;4903745;28;86780;-77
2022/05/29 06:55:02;;;;;;;6.32;0.50;;;17.60;62.80;;;;;;4906882;28;88145;-78
2022/05/29 06:57:37;;;;;;;3.65;0.60;;;18.80;57.90;;;;;;4904962;28;87190;-79
2022/05/29 07:08:26;;;;;;;2.38;0.40;;;21.00;51.30;;;;;;4908140;28;86968;-77
2022/05/29 07:10:54;;;;;;;1.60;0.40;;;20.50;51.80;;;;;;4897996;28;87403;-78
2022/05/29 07:13:20;;;;;;;2.75;0.40;;;20.40;53.10;;;;;;4888080;28;87018;-79
2022/05/29 07:15:46;;;;;;;4.05;0.45;;;21.80;50.50;;;;;;4906506;28;86698;-78
2022/05/29 07:18:12;;;;;;;5.15;0.68;;;22.10;50.40;;;;;;4905790;28;87802;-79
2022/05/29 07:20:38;;;;;;;3.67;0.43;;;22.00;49.40;;;;;;4908388;28;86932;-78
2022/05/29 07:23:04;;;;;;;2.10;0.50;;;21.60;48.20;;;;;;4908133;28;86936;-78
2022/05/29 07:25:30;;;;;;;2.72;0.43;;;21.00;50.50;;;;;;4899280;28;87168;-78
2022/05/29 07:27:55;;;;;;;2.15;0.52;;;21.00;50.60;;;;;;4906373;28;87411;-78
2022/05/29 07:30:21;;;;;;;5.50;0.73;;;21.20;50.90;;;;;;4891888;28;86897;-78
2022/05/29 07:32:47;;;;;;;4.00;0.63;;;22.10;50.20;;;;;;4906757;28;86688;-78
2022/05/29 07:35:16;;;;;;;3.90;0.60;;;23.10;47.50;;;;;;4906399;28;88118;-80
2022/05/29 07:37:42;;;;;;;;;;;23.30;46.50;;;;;;4908982;28;87217;-78
2022/05/29 07:40:09;;;;;;;3.33;0.60;;;22.90;46.60;;;;;;4907484;28;86795;-78
2022/05/29 07:45:19;;;;;;;4.65;1.10;;;22.20;48.30;;;;;;4899659;28;86253;-78
2022/05/29 07:47:46;;;;;;;2.50;0.52;;;22.10;48.30;;;;;;4887213;28;86881;-78
2022/05/29 07:50:15;;;;;;;2.67;0.68;;;21.80;48.90;;;;;;4894932;28;86876;-77
2022/05/29 07:52:41;;;;;;;2.25;0.63;;;21.00;49.80;;;;;;4906776;28;85936;-78
2022/05/29 07:55:07;;;;;;;2.10;0.52;;;20.60;51.30;;;;;;4906560;28;87269;-79
2022/05/29 07:57:32;;;;;;;3.08;1.02;;;20.40;52.00;;;;;;4908121;28;87305;-78
2022/05/29 07:59:58;;;;;;;2.25;0.40;;;20.00;52.00;;;;;;4907807;28;87730;-78
2022/05/29 08:02:24;;;;;;;3.10;0.57;;;20.10;52.20;;;;;;4905937;28;87024;-78
2022/05/29 08:04:50;;;;;;;2.78;0.47;;;20.20;51.40;;;;;;4908558;28;87971;-78
2022/05/29 08:07:18;;;;;;;3.50;0.57;;;20.60;51.90;;;;;;4913762;28;88234;-77
2022/05/29 08:09:44;;;;;;;3.40;0.50;;;21.00;49.60;;;;;;4913915;28;86944;-77
2022/05/29 08:12:10;;;;;;;3.90;0.68;;;21.40;49.70;;;;;;4910704;28;86680;-77
2022/05/29 08:14:36;;;;;;;2.85;0.52;;;21.50;49.30;;;;;;4899044;28;88916;-77
2022/05/29 08:17:02;;;;;;;3.97;0.88;;;21.20;49.50;;;;;;4908704;28;86146;-77
2022/05/29 08:19:28;;;;;;;3.50;0.57;;;21.20;50.50;;;;;;4909658;28;86815;-77
2022/05/29 08:21:53;;;;;;;4.70;0.90;;;21.40;49.70;;;;;;4909512;28;86901;-78
2022/05/29 08:32:35;;;;;;;2.67;0.90;;;27.40;42.40;;;;;;4911206;28;86706;-78
2022/05/29 08:35:01;;;;;;;4.07;0.77;;;29.20;39.20;;;;;;4904659;28;90086;-79
2022/05/29 08:37:28;;;;;;;2.30;0.52;;;28.50;36.80;;;;;;4906734;28;87533;-79
2022/05/29 08:39:53;;;;;;;3.60;1.02;;;27.70;37.90;;;;;;4911602;28;86683;-78
2022/05/29 08:42:20;;;;;;;3.15;0.95;;;27.30;39.30;;;;;;4911306;28;86417;-78
2022/05/29 08:44:49;;;;;;;2.53;0.75;;;26.20;39.70;;;;;;4908984;28;86741;-79
2022/05/29 08:47:24;;;;;;;2.33;0.80;;;27.20;40.10;;;;;;4911868;28;87314;-78
2022/05/29 08:49:50;;;;;;;;;;;28.70;38.80;;;;;;4911733;28;87772;-78
2022/05/29 08:52:31;;;;;;;2.47;0.82;;;28.70;36.40;;;;;;4912314;28;86884;-78
2022/05/29 08:55:02;;;;;;;2.83;1.10;;;27.80;37.10;;;;;;4894244;28;88160;-80
2022/05/29 08:57:35;;;;;;;3.47;1.00;;;26.90;38.90;;;;;;4898131;28;88451;-78
2022/05/29 09:00:06;;;;;;;3.22;0.70;;;27.00;38.50;;;;;;4908922;28;86885;-79
2022/05/29 09:03:05;;;;;;;2.92;0.88;;;27.70;36.70;;;;;;4901895;28;86659;-79
2022/05/29 09:05:42;;;;;;;4.88;1.00;;;28.00;38.20;;;;;;4891540;28;86991;-79
2022/05/29 09:08:20;;;;;;;2.50;0.93;;;29.60;37.00;;;;;;4892266;28;86962;-79
2022/05/29 09:10:50;;;;;;;2.40;0.63;;;29.00;36.50;;;;;;4892080;28;86684;-78
2022/05/29 09:13:47;;;;;;;3.92;0.82;;;29.20;36.10;;;;;;4900836;28;87539;-79
2022/05/29 09:16:25;;;;;;;3.97;0.65;;;31.30;35.20;;;;;;4840097;28;87812;-80
2022/05/29 09:19:08;;;;;;;2.03;1.17;;;34.10;32.90;;;;;;4885720;28;88636;-80
2022/05/29 09:21:54;;;;;;;4.20;1.15;;;34.60;31.50;;;;;;4889902;28;87322;-82
2022/05/29 09:25:06;;;;;;;5.35;1.17;;;36.90;30.60;;;;;;4887946;28;87044;-80
2022/05/29 09:27:34;;;;;;;4.35;1.50;;;39.10;29.30;;;;;;4798591;29;87391;-81
2022/05/29 09:29:59;;;;;;;3.65;1.60;;;40.90;28.50;;;;;;4807542;29;87229;-82
2022/05/29 09:32:28;;;;;;;4.63;1.90;;;42.00;27.50;;;;;;4848471;28;87117;-81
2022/05/29 09:35:19;;;;;;;4.25;1.65;;;42.60;25.80;;;;;;4893450;28;87245;-80
2022/05/29 09:37:56;;;;;;;3.40;1.63;;;40.00;27.60;;;;;;4854817;28;87417;-79
2022/05/29 09:40:27;;;;;;;4.20;1.60;;;40.70;27.60;;;;;;4888856;28;87383;-81
2022/05/29 09:42:54;;;;;;;3.03;1.50;;;41.40;27.20;;;;;;4897113;28;88321;-79
2022/05/29 09:45:22;;;;;;;3.75;1.70;;;41.90;27.00;;;;;;4897547;28;87525;-80
2022/05/29 09:51:02;;;;;;;7.50;1.90;;;40.50;27.60;;;;;;4896324;28;86771;-78
2022/05/29 09:53:34;;;;;;;3.67;1.45;;;39.60;27.90;;;;;;4880445;28;87082;-79
2022/05/29 09:56:04;;;;;;;4.88;1.83;;;39.40;27.90;;;;;;4897226;28;87426;-79
2022/05/29 09:58:48;;;;;;;2.70;1.35;;;38.30;28.10;;;;;;4898365;28;87224;-80
2022/05/29 10:01:32;;;;;;;3.45;1.38;;;34.90;28.10;;;;;;4895260;28;88547;-82
2022/05/29 10:04:01;;;;;;;4.63;1.65;;;35.00;31.00;;;;;;4897858;28;87074;-82
2022/05/29 10:06:31;;;;;;;3.45;1.80;;;35.10;29.80;;;;;;4899987;28;87083;-82
2022/05/29 10:09:17;;;;;;;1.88;1.08;;;33.50;30.30;;;;;;4899087;28;88171;-83
2022/05/29 10:11:48;;;;;;;4.05;1.30;;;31.20;32.70;;;;;;4899603;28;88245;-82
2022/05/29 10:14:40;;;;;;;4.53;1.25;;;29.10;33.30;;;;;;4900666;28;86531;-82
2022/05/29 10:17:15;;;;;;;3.47;1.35;;;28.20;35.00;;;;;;4899263;28;86616;-81
2022/05/29 10:19:44;;;;;;;3.08;1.58;;;27.50;37.20;;;;;;4892139;28;87071;-81
2022/05/29 10:22:30;;;;;;;5.35;1.20;;;27.00;36.70;;;;;;4897060;28;87400;-81
2022/05/29 10:24:57;;;;;;;3.53;1.25;;;26.20;36.80;;;;;;4892866;28;87119;-81
2022/05/29 10:27:34;;;;;;;3.92;0.68;;;25.10;37.40;;;;;;4892656;28;86294;-79
2022/05/29 10:30:01;;;;;;;2.63;0.63;;;24.30;39.80;;;;;;4892172;28;88102;-82
2022/05/29 10:32:31;;;;;;;4.97;0.77;;;23.90;41.40;;;;;;4895458;28;87329;-82
2022/05/29 10:35:22;;;;;;;3.38;0.57;;;23.50;40.20;;;;;;4901869;28;88056;-81
2022/05/29 10:37:51;;;;;;;4.15;0.50;;;23.20;42.10;;;;;;4897127;28;87160;-83
2022/05/29 10:40:27;;;;;;;2.80;0.88;;;23.30;42.80;;;;;;4901784;28;87630;-81
2022/05/29 10:42:55;;;;;;;4.75;1.13;;;23.40;43.00;;;;;;4901628;28;87083;-81
2022/05/29 10:45:28;;;;;;;4.93;0.98;;;22.70;41.20;;;;;;4902011;28;87190;-81
2022/05/29 10:48:02;;;;;;;3.35;0.93;;;21.70;43.00;;;;;;4900266;28;87009;-80
2022/05/29 10:50:47;;;;;;;2.40;0.47;;;21.50;45.30;;;;;;4901639;28;88417;-81
2022/05/29 10:53:39;;;;;;;3.78;0.68;;;22.20;44.50;;;;;;4883993;28;86908;-82
2022/05/29 10:56:30;;;;;;;3.40;0.63;;;22.70;42.00;;;;;;4898587;28;86885;-81
2022/05/29 10:59:17;;;;;;;3.30;0.52;;;23.00;44.50;;;;;;4889165;28;87143;-81
2022/05/29 11:05:11;;;;;;;3.75;0.70;;;22.60;42.90;;;;;;4896364;28;86991;-80
2022/05/29 11:07:42;;;;;;;2.70;0.55;;;23.00;44.70;;;;;;4900967;28;87042;-83
2022/05/29 11:10:48;;;;;;;2.55;0.40;;;23.10;42.60;;;;;;4896376;28;86909;-80
2022/05/29 11:13:23;;;;;;;5.80;0.68;;;23.30;42.30;;;;;;4898715;28;87381;-79
2022/05/29 11:15:54;;;;;;;4.40;0.57;;;22.80;41.80;;;;;;4906391;28;86636;-79
2022/05/29 11:18:20;;;;;;;6.78;0.32;;;22.40;41.60;;;;;;4892159;28;86856;-78
2022/05/29 11:21:11;;;;;;;2.80;0.57;;;22.20;42.70;;;;;;4890487;28;86293;-78
2022/05/29 11:24:21;;;;;;;4.05;0.40;;;21.70;43.30;;;;;;4890534;28;86774;-79
2022/05/29 11:26:49;;;;;;;3.30;0.45;;;21.60;45.30;;;;;;4890427;28;87331;-78
2022/05/29 11:29:18;;;;;;;2.13;0.30;;;21.70;46.60;;;;;;4890743;28;87610;-79
2022/05/29 11:32:06;;;;;;;3.30;0.80;;;21.70;42.90;;;;;;4909146;28;86260;-79
2022/05/29 11:34:35;;;;;;;3.40;0.20;;;21.50;43.90;;;;;;4908882;28;88247;-78
2022/05/29 11:37:15;;;;;;;1.52;0.30;;;20.70;45.50;;;;;;4908751;28;86417;-78
2022/05/29 11:39:49;;;;;;;4.03;0.52;;;19.70;50.40;;;;;;4908902;28;86787;-78
2022/05/29 11:42:45;;;;;;;3.67;0.32;;;18.80;52.10;;;;;;4911990;28;86313;-78
2022/05/29 11:45:23;;;;;;;5.55;0.28;;;18.10;51.90;;;;;;4911141;28;87705;-78
2022/05/29 11:51:08;;;;;;;1.10;0.20;;;16.70;54.60;;;;;;4911632;28;86808;-78
2022/05/29 11:53:52;;;;;;;3.88;0.20;;;16.40;55.90;;;;;;4910733;28;86278;-78
2022/05/29 11:56:29;;;;;;;1.67;0.20;;;16.40;55.20;;;;;;4907035;28;88525;-78
2022/05/29 11:59:08;;;;;;;1.45;0.30;;;16.30;55.80;;;;;;4910650;28;88387;-78
2022/05/29 12:01:40;;;;;;;5.55;0.20;;;16.50;55.90;;;;;;4909799;28;86678;-79
2022/05/29 12:04:17;;;;;;;2.28;0.45;;;16.70;55.20;;;;;;4910497;28;86338;-78
2022/05/29 12:06:58;;;;;;;2.22;0.30;;;16.60;56.70;;;;;;4903949;28;87308;-78
2022/05/29 12:09:30;;;;;;;1.40;0.20;;;16.80;55.40;;;;;;4891391;28;86799;-78
2022/05/29 12:12:06;;;;;;;1.92;0.20;;;16.80;54.50;;;;;;4891191;28;86656;-77
2022/05/29 12:14:47;;;;;;;1.92;0.20;;;16.80;54.30;;;;;;4894731;28;86897;-77
2022/05/29 12:17:39;;;;;;;1.48;0.15;;;17.00;54.40;;;;;;4896202;28;87463;-78
2022/05/29 12:20:41;;;;;;;1.95;0.35;;;17.50;55.60;;;;;;4892352;28;86874;-81
2022/05/29 12:23:41;;;;;;;1.30;0.20;;;18.30;54.30;;;;;;4879801;28;88185;-82
2022/05/29 12:26:50;;;;;;;6.57;0.20;;;18.30;52.50;;;;;;4885332;28;87111;-79
2022/05/29 12:29:22;;;;;;;1.73;0.20;;;18.10;54.90;;;;;;4868558;28;88240;-81
2022/05/29 12:31:55;;;;;;;1.83;0.10;;;18.00;51.90;;;;;;4891892;28;86738;-81
2022/05/29 12:34:44;;;;;;;2.55;0.35;;;18.40;54.10;;;;;;4887926;28;87042;-79
2022/05/29 12:37:10;;;;;;;1.30;0.25;;;18.90;51.40;;;;;;4884261;28;87036;-80
2022/05/29 12:40:05;;;;;;;0.93;0.13;;;18.40;52.90;;;;;;4884559;28;87265;-78
2022/05/29 12:42:42;;;;;;;0.73;0.30;;;18.00;50.50;;;;;;4835410;28;86397;-79
2022/05/29 12:45:23;;;;;;;1.55;0.10;;;17.40;52.60;;;;;;4889345;28;86808;-77
2022/05/29 12:48:04;;;;;;;2.55;0.30;;;17.50;53.30;;;;;;4888981;28;86774;-78
2022/05/29 12:50:30;;;;;;;1.95;0.20;;;17.50;52.80;;;;;;4888708;28;88424;-78
2022/05/29 12:53:16;;;;;;;1.23;0.20;;;17.70;52.60;;;;;;4891533;28;87076;-78
2022/05/29 12:56:09;;;;;;;2.88;0.30;;;17.60;55.10;;;;;;4900016;28;86325;-79
2022/05/29 12:59:14;;;;;;;1.10;0.10;;;17.30;54.80;;;;;;4910337;28;86907;-77
2022/05/29 13:01:52;;;;;;;1.00;0.20;;;17.30;54.90;;;;;;4894537;28;87397;-78
2022/05/29 13:04:37;;;;;;;2.25;0.10;;;16.80;55.50;;;;;;4908501;28;87731;-77
2022/05/29 13:07:22;;;;;;;2.80;0.50;;;17.10;55.80;;;;;;4908395;28;86658;-77
2022/05/29 13:09:51;;;;;;;1.30;0.25;;;17.20;54.40;;;;;;4909186;28;85927;-77
2022/05/29 13:12:21;;;;;;;3.60;0.20;;;16.70;55.70;;;;;;4908289;28;87189;-78
2022/05/29 13:14:53;;;;;;;1.38;0.20;;;16.40;56.90;;;;;;4908160;28;88458;-79
2022/05/29 13:17:29;;;;;;;0.90;0.20;;;15.80;59.00;;;;;;4908232;28;87880;-77
2022/05/29 13:20:01;;;;;;;1.40;0.20;;;15.90;59.60;;;;;;4908468;28;86866;-77
2022/05/29 13:22:47;;;;;;;0.77;0.20;;;16.40;59.30;;;;;;4908753;28;88277;-77
2022/05/29 13:25:13;;;;;;;0.70;0.20;;;16.30;57.90;;;;;;4907857;28;87008;-78
2022/05/29 13:27:39;;;;;;;0.82;0.10;;;16.20;59.20;;;;;;4911032;28;86293;-79
2022/05/29 13:30:08;;;;;;;1.60;0.10;;;16.00;60.00;;;;;;4910243;28;87053;-77
2022/05/29 13:32:35;;;;;;;1.88;0.10;;;16.30;58.90;;;;;;4907685;28;89655;-77
2022/05/29 13:35:04;;;;;;;1.25;0.20;;;16.50;57.70;;;;;;4908245;28;86903;-77
2022/05/29 13:37:32;;;;;;;1.23;0.25;;;16.60;58.50;;;;;;4908253;28;86882;-77
2022/05/29 13:40:00;;;;;;;1.10;0.10;;;16.70;58.20;;;;;;4908200;28;86713;-77
2022/05/29 13:42:25;;;;;;;1.80;0.20;;;16.90;58.60;;;;;;4907080;28;89417;-77
2022/05/29 13:44:51;;;;;;;2.08;0.22;;;17.00;57.50;;;;;;4907853;28;87100;-77
2022/05/29 13:47:23;;;;;;;0.82;0.13;;;17.00;57.20;;;;;;4908227;28;86685;-77
2022/05/29 13:50:04;;;;;;;1.35;0.30;;;16.80;56.80;;;;;;4908931;28;86758;-79
2022/05/29 13:52:31;;;;;;;0.90;0.10;;;16.80;56.90;;;;;;4908096;28;86828;-77
2022/05/29 13:55:03;;;;;;;1.38;0.10;;;16.40;59.10;;;;;;4907405;28;86901;-77
2022/05/29 14:03:58;;;;;;;0.98;0.10;;;15.90;60.00;;;;;;4909450;28;86851;-77
2022/05/29 14:06:45;;;;;;;1.05;0.10;;;15.90;60.20;;;;;;4909095;28;86169;-79
2022/05/29 14:09:13;;;;;;;1.55;0.17;;;15.90;60.20;;;;;;4909220;28;87600;-77
2022/05/29 14:11:48;;;;;;;0.68;0.10;;;15.80;61.90;;;;;;4907087;28;86667;-77
2022/05/29 14:14:34;;;;;;;3.90;0.13;;;15.70;63.00;;;;;;4906941;28;86643;-77
2022/05/29 14:17:00;;;;;;;2.00;0.20;;;15.80;63.60;;;;;;4911569;28;86668;-77
2022/05/29 14:19:52;;;;;;;0.57;0.15;;;15.70;60.70;;;;;;4914983;28;86762;-79
2022/05/29 14:22:46;;;;;;;1.40;0.20;;;15.60;60.30;;;;;;4916258;28;86742;-79
2022/05/29 14:25:45;;;;;;;1.52;0.30;;;15.60;59.30;;;;;;4907567;28;86816;-77
2022/05/29 14:28:14;;;;;;;0.30;0.10;;;15.80;59.80;;;;;;4910495;28;87049;-77
2022/05/29 14:31:03;;;;;;;4.93;0.20;;;15.90;59.70;;;;;;4909120;28;86780;-78
2022/05/29 14:33:41;;;;;;;0.82;0.10;;;16.10;59.20;;;;;;4909809;28;87092;-79
2022/05/29 14:36:50;;;;;;;0.50;0.20;;;16.20;57.40;;;;;;4894180;28;88191;-78
2022/05/29 14:39:18;;;;;;;0.70;0.10;;;16.20;55.20;;;;;;4892868;28;88339;-79
2022/05/29 14:42:07;;;;;;;0.93;0.10;;;16.20;56.70;;;;;;4895772;28;86939;-79
2022/05/29 14:45:13;;;;;;;0.88;0.20;;;16.20;57.10;;;;;;4914452;28;86830;-78
2022/05/29 14:48:06;;;;;;;2.40;0.20;;;16.30;58.70;;;;;;4890242;28;86717;-78
2022/05/29 14:50:43;;;;;;;0.90;0.20;;;16.40;57.50;;;;;;4907165;28;86389;-79
2022/05/29 14:53:22;;;;;;;1.45;0.13;;;16.30;58.20;;;;;;4898810;28;86300;-78
2022/05/29 14:56:12;;;;;;;1.08;0.30;;;16.50;58.20;;;;;;4897814;28;86014;-78
2022/05/29 14:58:42;;;;;;;1.27;0.30;;;16.80;56.80;;;;;;4913242;28;88104;-78
2022/05/29 15:01:38;;;;;;;1.35;0.20;;;16.90;57.30;;;;;;4912555;28;86888;-79
2022/05/29 15:04:04;;;;;;;1.33;0.10;;;17.10;55.30;;;;;;4900432;28;87726;-79
2022/05/29 15:12:21;;;;;;;0.57;0.10;;;17.20;51.70;;;;;;4903503;28;87013;-78
2022/05/29 15:14:47;;;;;;;0.98;0.10;;;17.30;52.90;;;;;;4902465;28;86684;-79
2022/05/29 15:17:21;;;;;;;0.77;0.10;;;17.20;52.80;;;;;;4892606;28;87057;-79
2022/05/29 15:25:21;;;;;;;2.45;0.80;;;17.60;55.60;;;;;;4893894;28;86840;-78
2022/05/29 15:27:56;;;;;;;2.33;0.43;;;17.20;59.50;;;;;;4896505;28;86846;-78
2022/05/29 15:30:24;;;;;;;2.25;0.40;;;16.50;60.00;;;;;;4896956;28;87978;-78
2022/05/29 15:33:05;;;;;;;2.25;0.20;;;15.60;62.40;;;;;;4901314;28;88363;-78
2022/05/29 15:36:06;;;;;;;1.75;0.20;;;15.60;65.30;;;;;;4909317;28;86794;-78
2022/05/29 15:38:38;;;;;;;1.60;0.13;;;15.70;63.90;;;;;;4820263;29;87039;-78
2022/05/29 15:41:20;;;;;;;1.33;0.20;;;16.20;62.90;;;;;;4886967;28;87574;-84
2022/05/29 15:43:48;;;;;;;1.30;0.22;;;15.80;62.80;;;;;;4898943;28;86872;-79
2022/05/29 15:46:25;;;;;;;2.60;0.93;;;15.00;65.20;;;;;;4898585;28;86991;-83
2022/05/29 15:49:18;;;;;;;5.50;0.30;;;14.90;64.90;;;;;;4906823;28;86328;-84
2022/05/29 15:51:56;;;;;;;1.17;0.22;;;14.50;66.80;;;;;;4881882;28;87812;-80
2022/05/29 15:54:44;;;;;;;1.77;0.20;;;14.30;66.50;;;;;;4902234;28;87383;-78
2022/05/29 15:57:40;;;;;;;1.05;0.20;;;14.20;68.40;;;;;;4902659;28;87863;-82
2022/05/29 16:00:08;;;;;;;2.30;0.30;;;14.20;67.80;;;;;;4899833;28;87405;-81
2022/05/29 16:02:58;;;;;;;1.70;0.20;;;14.40;70.30;;;;;;4902828;28;88170;-82
2022/05/29 16:05:40;;;;;;;1.65;0.30;;;15.00;68.60;;;;;;4875703;28;88710;-82
2022/05/29 16:08:30;;;;;;;1.63;0.25;;;15.40;67.60;;;;;;4895324;28;86747;-81
2022/05/29 16:10:56;;;;;;;1.17;0.20;;;15.60;65.10;;;;;;4905770;28;86937;-77
2022/05/29 16:13:40;;;;;;;1.25;0.20;;;15.60;63.80;;;;;;4894299;28;87229;-77
2022/05/29 16:16:15;;;;;;;2.13;0.15;;;15.70;64.50;;;;;;4913860;28;87802;-78
2022/05/29 16:18:44;;;;;;;1.40;0.20;;;15.40;63.50;;;;;;4902485;28;86829;-78
2022/05/29 16:21:37;;;;;;;1.83;0.15;;;15.10;64.70;;;;;;4901550;28;87067;-77
2022/05/29 16:24:29;;;;;;;1.73;0.22;;;15.20;65.70;;;;;;4909020;28;89622;-78
2022/05/29 16:27:33;;;;;;;1.00;0.20;;;15.60;65.20;;;;;;4903528;28;87965;-81
2022/05/29 16:30:07;;;;;;;2.35;0.10;;;15.90;65.20;;;;;;4893627;28;86947;-78
2022/05/29 16:32:51;;;;;;;1.80;0.30;;;15.90;63.60;;;;;;4890694;28;86925;-78
2022/05/29 16:35:28;;;;;;;0.80;0.10;;;15.90;61.50;;;;;;4897172;28;86756;-78
2022/05/29 16:49:46;;;;;;;3.03;0.20;;;16.50;60.30;;;;;;4910193;28;86804;-78
2022/05/29 16:52:20;;;;;;;0.90;0.17;;;16.70;60.30;;;;;;4909207;28;87750;-79
2022/05/29 16:54:58;;;;;;;1.40;0.22;;;16.70;58.70;;;;;;4908931;28;87091;-79
2022/05/29 16:57:39;;;;;;;1.02;0.30;;;16.70;59.40;;;;;;4907242;28;86588;-79
2022/05/29 17:00:17;;;;;;;2.03;0.30;;;16.60;58.10;;;;;;4896332;28;87128;-79
2022/05/29 17:02:45;;;;;;;1.23;0.20;;;16.10;58.80;;;;;;4901828;28;86722;-79
2022/05/29 17:05:29;;;;;;;1.27;0.10;;;15.70;59.70;;;;;;4908960;28;86327;-79
2022/05/29 17:08:02;;;;;;;1.30;0.20;;;16.00;61.50;;;;;;4906978;28;88237;-80
2022/05/29 17:10:49;;;;;;;1.38;0.20;;;16.20;59.80;;;;;;4891883;28;86688;-79
2022/05/29 17:13:15;;;;;;;0.85;0.17;;;16.20;59.40;;;;;;4903436;28;86690;-78
2022/05/29 17:15:41;;;;;;;1.25;0.20;;;16.20;59.00;;;;;;4893834;28;86694;-79
2022/05/29 17:18:07;;;;;;;2.47;0.30;;;16.30;59.00;;;;;;4892191;28;87803;-79
2022/05/29 17:20:50;;;;;;;0.70;0.10;;;16.30;59.60;;;;;;4891646;28;87059;-79
2022/05/29 17:23:51;;;;;;;1.65;0.20;;;16.30;60.30;;;;;;4893091;28;86714;-79
2022/05/29 17:26:28;;;;;;;2.78;0.10;;;16.00;59.60;;;;;;4892268;28;86688;-79
2022/05/29 17:29:05;;;;;;;0.77;0.10;;;15.80;60.80;;;;;;4892686;28;87243;-79
2022/05/29 17:31:38;;;;;;;1.27;0.30;;;15.60;60.00;;;;;;4892698;28;86983;-79
2022/05/29 17:34:10;;;;;;;2.42;0.43;;;15.40;60.60;;;;;;4892887;28;86702;-79
2022/05/29 17:37:04;;;;;;;1.88;0.20;;;15.40;60.90;;;;;;4892269;28;86122;-80
2022/05/29 17:39:32;;;;;;;0.98;0.17;;;15.20;61.70;;;;;;4893392;28;87598;-79
2022/05/29 17:41:58;;;;;;;1.83;0.20;;;15.30;61.70;;;;;;4892920;28;86686;-79
2022/05/29 17:44:24;;;;;;;1.98;0.40;;;15.30;61.50;;;;;;4891346;28;87626;-79
2022/05/29 17:47:31;;;;;;;1.52;0.10;;;15.10;61.50;;;;;;4891787;28;86590;-79
2022/05/29 17:50:37;;;;;;;2.25;0.20;;;14.80;62.60;;;;;;4870279;28;88157;-78
2022/05/29 17:53:07;;;;;;;2.05;0.30;;;14.80;60.40;;;;;;4889719;28;86913;-80
2022/05/29 17:55:33;;;;;;;1.08;0.10;;;14.70;61.20;;;;;;4929640;28;86236;-84
2022/05/29 17:58:03;;;;;;;2.53;0.20;;;14.40;60.20;;;;;;4911253;28;86665;-79
2022/05/29 18:00:33;;;;;;;1.67;0.10;;;14.20;61.30;;;;;;4911377;28;87698;-79
2022/05/29 18:03:04;;;;;;;0.52;0.10;;;14.10;61.50;;;;;;4912911;28;86259;-79
2022/05/29 18:05:29;;;;;;;2.95;0.13;;;14.00;61.70;;;;;;4912785;28;86788;-80
2022/05/29 18:07:56;;;;;;;0.90;0.10;;;13.90;61.90;;;;;;4912308;28;86264;-80
2022/05/29 18:10:28;;;;;;;1.83;0.20;;;13.90;61.50;;;;;;4911932;28;87939;-82
2022/05/29 18:12:54;;;;;;;0.80;0.13;;;13.80;61.40;;;;;;4912816;28;87957;-80
2022/05/29 18:15:21;;;;;;;1.58;0.20;;;13.70;62.10;;;;;;4911958;28;86386;-79
2022/05/29 18:17:48;;;;;;;3.42;0.10;;;13.60;62.20;;;;;;4911324;28;86943;-80
2022/05/29 18:20:13;;;;;;;0.63;0.10;;;13.70;62.70;;;;;;4910480;28;87307;-79
2022/05/29 18:22:39;;;;;;;1.80;0.17;;;13.70;63.50;;;;;;4910340;28;86805;-79
2022/05/29 18:25:08;;;;;;;2.35;0.10;;;13.70;63.40;;;;;;4910357;28;86663;-79
2022/05/29 18:27:34;;;;;;;1.13;0.10;;;13.60;62.90;;;;;;4910929;28;86076;-79
2022/05/29 18:30:00;;;;;;;0.50;0.10;;;13.50;62.60;;;;;;4909916;28;87557;-79